createdAt,value
2018-06-23T14:37:46.252Z,40.53
2018-06-23T14:43:09.965Z,39.54
2018-06-23T14:45:39.132Z,39.51
2018-06-23T14:48:08.257Z,38.83
2018-06-23T15:05:47.446Z,46.93
2018-06-23T15:08:34.038Z,50.57
2018-06-23T15:11:20.464Z,54.10
2018-06-23T15:13:49.678Z,55.98
2018-06-23T15:16:19.147Z,56.65
2018-06-23T15:18:48.313Z,57.90
2018-06-23T15:21:17.482Z,58.42
2018-06-23T15:23:49.122Z,59.26
2018-06-23T15:26:18.394Z,61.33
2018-06-23T15:28:48.916Z,63.79
2018-06-23T15:31:21.405Z,67.64
2018-06-23T15:33:51.946Z,69.31
2018-06-23T15:36:22.529Z,71.38
2018-06-23T15:38:54.360Z,72.61
2018-06-23T15:41:24.530Z,72.94
2018-06-23T15:43:55.995Z,74.18
2018-06-23T15:46:27.647Z,74.81
2018-06-23T15:48:57.996Z,74.85
2018-06-23T15:51:29.799Z,74.63
2018-06-23T15:54:00.122Z,75.29
2018-06-23T15:56:30.831Z,75.01
2018-06-23T15:59:01.262Z,75.20
2018-06-23T16:01:33.772Z,75.02
2018-06-23T16:04:04.436Z,74.46
2018-06-23T16:06:34.351Z,73.27
2018-06-23T16:09:06.769Z,73.56
2018-06-23T16:11:37.872Z,72.46
2018-06-23T16:14:07.055Z,72.03
2018-06-23T16:16:36.501Z,72.01
2018-06-23T16:19:06.167Z,71.33
2018-06-23T16:21:35.389Z,70.31
2018-06-23T16:24:04.619Z,70.08
2018-06-23T16:26:33.790Z,69.74
2018-06-23T16:29:03.176Z,69.55
2018-06-23T16:31:32.343Z,69.16
2018-06-23T16:34:01.502Z,68.62
2018-06-23T16:36:30.724Z,68.89
2018-06-23T16:38:59.929Z,68.06
2018-06-23T16:41:29.105Z,68.44
2018-06-23T16:43:58.489Z,67.49
2018-06-23T16:46:27.643Z,67.60
2018-06-23T16:48:57.165Z,67.49
2018-06-23T16:51:26.462Z,67.04
2018-06-23T16:53:55.639Z,67.13
2018-06-23T16:56:24.811Z,67.14
2018-06-23T16:58:54.203Z,67.63
2018-06-23T17:01:23.492Z,67.61
2018-06-23T17:03:52.782Z,67.81
2018-06-23T17:06:21.892Z,67.71
2018-06-23T17:08:51.150Z,67.33
2018-06-23T17:11:20.432Z,67.64
2018-06-23T17:13:49.667Z,67.98
2018-06-23T17:16:18.842Z,67.20
2018-06-23T17:18:47.953Z,67.40
2018-06-23T17:21:17.081Z,67.71
2018-06-23T17:23:46.244Z,67.23
2018-06-23T17:26:15.365Z,67.32
2018-06-23T17:28:44.524Z,67.68
2018-06-23T17:31:13.739Z,67.97
2018-06-23T17:33:42.962Z,67.63
2018-06-23T17:36:12.157Z,68.00
2018-06-23T17:38:41.387Z,67.82
2018-06-23T17:41:10.633Z,68.07
2018-06-23T17:43:39.796Z,68.50
2018-06-23T17:46:08.966Z,68.89
2018-06-23T17:48:38.129Z,69.55
2018-06-23T17:51:07.972Z,69.68
2018-06-23T17:53:37.115Z,69.43
2018-06-23T17:56:06.326Z,69.61
2018-06-23T17:58:35.423Z,70.56
2018-06-23T18:01:04.631Z,70.27
2018-06-23T18:03:33.849Z,70.70
2018-06-23T18:06:03.172Z,71.32
2018-06-23T18:08:32.352Z,71.33
2018-06-23T18:11:01.576Z,71.61
2018-06-23T18:13:30.828Z,72.52
2018-06-23T18:16:00.214Z,73.05
2018-06-23T18:18:29.441Z,73.50
2018-06-23T18:20:58.687Z,73.46
2018-06-23T18:23:27.824Z,73.96
2018-06-23T18:25:57.338Z,73.63
2018-06-23T18:28:26.503Z,73.66
2018-06-23T18:30:55.741Z,74.22
2018-06-23T18:33:25.093Z,75.65
2018-06-23T18:35:54.306Z,75.73
2018-06-23T18:38:23.482Z,76.88
2018-06-23T18:40:52.683Z,76.76
2018-06-23T18:43:21.667Z,77.09
2018-06-23T18:45:50.870Z,77.14
2018-06-23T18:48:20.109Z,78.04
2018-06-23T18:50:49.322Z,78.28
2018-06-23T18:53:18.546Z,78.34
2018-06-23T18:55:47.792Z,78.34
2018-06-23T18:58:17.066Z,78.46
2018-06-23T19:00:46.251Z,78.34
2018-06-23T19:03:15.476Z,78.59
2018-06-23T19:05:44.666Z,78.30
2018-06-23T19:08:13.870Z,79.25
2018-06-23T19:10:43.107Z,78.77
2018-06-23T19:13:12.292Z,79.45
2018-06-23T19:15:41.665Z,79.52
2018-06-23T19:18:10.839Z,78.86
2018-06-23T19:20:40.215Z,79.46
2018-06-23T19:23:09.379Z,79.86
2018-06-23T19:25:38.600Z,79.87
2018-06-23T19:28:07.769Z,80.45
2018-06-23T19:30:36.997Z,81.10
2018-06-23T19:33:06.251Z,81.36
2018-06-23T19:35:35.629Z,82.61
2018-06-23T19:38:04.857Z,83.06
2018-06-23T19:40:34.190Z,83.36
2018-06-23T19:43:03.389Z,84.68
2018-06-23T19:45:32.603Z,84.62
2018-06-23T19:48:01.759Z,85.61
2018-06-23T19:50:31.090Z,86.43
2018-06-23T19:53:00.421Z,86.31
2018-06-23T19:55:29.581Z,86.64
2018-06-23T19:57:58.802Z,87.41
2018-06-23T20:00:28.297Z,88.05
2018-06-23T20:02:57.472Z,88.17
2018-06-23T20:05:26.800Z,88.01
2018-06-23T20:07:56.044Z,88.66
2018-06-23T20:10:25.381Z,89.28
2018-06-23T20:12:54.707Z,89.58
2018-06-23T20:15:24.094Z,89.52
2018-06-23T20:17:53.402Z,90.04
2018-06-23T20:20:22.760Z,89.90
2018-06-23T20:22:52.018Z,90.27
2018-06-23T20:25:21.283Z,90.43
2018-06-23T20:27:50.538Z,90.72
2018-06-23T20:30:19.794Z,90.60
2018-06-23T20:32:49.023Z,91.00
2018-06-23T20:35:18.364Z,91.03
2018-06-23T20:37:47.606Z,91.55
2018-06-23T20:40:16.785Z,91.91
2018-06-23T20:42:46.083Z,91.58
2018-06-23T20:45:15.346Z,91.74
2018-06-23T20:47:44.619Z,91.87
2018-06-23T20:50:13.937Z,91.65
2018-06-23T20:52:43.135Z,92.02
2018-06-23T20:55:12.274Z,92.47
2018-06-23T20:57:41.509Z,92.11
2018-06-23T21:00:10.657Z,92.69
2018-06-23T21:02:39.839Z,92.30
2018-06-23T21:05:09.013Z,92.92
2018-06-23T21:07:38.401Z,93.04
2018-06-23T21:10:07.608Z,92.85
2018-06-23T21:12:36.759Z,93.32
2018-06-23T21:15:05.984Z,92.92
2018-06-23T21:17:35.212Z,92.98
2018-06-23T21:20:04.377Z,93.28
2018-06-23T21:22:33.558Z,93.10
2018-06-23T21:25:02.977Z,93.60
2018-06-23T21:27:32.188Z,93.37
2018-06-23T21:30:01.338Z,93.59
2018-06-23T21:32:30.346Z,94.03
2018-06-23T21:34:59.944Z,94.17
2018-06-23T21:37:29.136Z,93.77
2018-06-23T21:39:58.440Z,94.50
2018-06-23T21:42:27.578Z,94.58
2018-06-23T21:44:56.976Z,94.63
2018-06-23T21:47:26.360Z,94.70
2018-06-23T21:49:55.509Z,94.02
2018-06-23T21:52:24.688Z,94.72
2018-06-23T21:54:53.859Z,94.29
2018-06-23T21:57:22.994Z,94.26
2018-06-23T21:59:52.172Z,94.27
2018-06-23T22:02:21.346Z,94.59
2018-06-23T22:04:50.540Z,94.78
2018-06-23T22:07:19.768Z,95.01
2018-06-23T22:09:48.958Z,94.41
2018-06-23T22:12:18.203Z,94.91
2018-06-23T22:14:47.415Z,94.90
2018-06-23T22:17:16.617Z,94.78
2018-06-23T22:19:45.721Z,94.58
2018-06-23T22:22:14.857Z,94.92
2018-06-23T22:24:44.010Z,94.45
2018-06-23T22:27:13.258Z,94.99
2018-06-23T22:29:42.573Z,94.84
2018-06-23T22:32:11.673Z,95.08
2018-06-23T22:34:40.834Z,94.81
2018-06-23T22:37:09.972Z,95.03
2018-06-23T22:39:39.128Z,95.20
2018-06-23T22:42:08.305Z,95.14
2018-06-23T22:44:37.481Z,95.45
2018-06-23T22:47:06.731Z,95.43
2018-06-23T22:49:36.851Z,95.58
2018-06-23T22:52:06.226Z,94.87
2018-06-23T22:54:35.456Z,95.07
2018-06-23T22:57:04.688Z,95.30
2018-06-23T22:59:33.817Z,95.10
2018-06-23T23:02:02.984Z,95.01
2018-06-23T23:04:35.240Z,94.89
2018-06-23T23:07:04.610Z,94.84
2018-06-23T23:09:33.743Z,95.34
2018-06-23T23:12:03.419Z,95.12
2018-06-23T23:14:32.647Z,95.48
2018-06-23T23:17:01.795Z,95.05
2018-06-23T23:19:30.982Z,94.74
2018-06-23T23:22:00.345Z,94.82
2018-06-23T23:24:29.499Z,94.66
2018-06-23T23:26:58.696Z,95.30
2018-06-23T23:29:27.817Z,95.02
2018-06-23T23:31:56.981Z,94.45
2018-06-23T23:34:26.136Z,94.66
2018-06-23T23:36:55.385Z,94.82
2018-06-23T23:39:24.544Z,94.70
2018-06-23T23:41:53.692Z,94.96
2018-06-23T23:44:22.883Z,94.76
2018-06-23T23:46:52.073Z,94.33
2018-06-23T23:49:21.275Z,94.38
2018-06-23T23:51:50.489Z,94.83
2018-06-23T23:54:19.670Z,94.65
2018-06-23T23:56:48.881Z,93.84
2018-06-23T23:59:18.059Z,94.59
